createdAt,value
2023-02-13T00:00:39.382Z,27.1
2023-02-13T00:06:02.661Z,24.6
2023-02-13T00:11:23.177Z,26.3
2023-02-13T00:16:45.863Z,27.3
2023-02-13T00:22:23.801Z,23
2023-02-13T00:28:14.982Z,25.6
2023-02-13T00:33:52.911Z,27.3
2023-02-13T00:39:30.401Z,25.8
2023-02-13T00:44:51.487Z,26.9
2023-02-13T00:50:14.651Z,24.6
2023-02-13T00:55:52.484Z,26.4
2023-02-13T01:01:13.278Z,25.9
2023-02-13T01:06:05.287Z,25.9
2023-02-13T01:11:27.944Z,26.9
2023-02-13T01:17:04.002Z,24.8
2023-02-13T01:22:41.280Z,26.2
2023-02-13T01:28:18.530Z,27.4
2023-02-13T01:33:56.581Z,25.8
2023-02-13T01:39:34.459Z,26.8
2023-02-13T01:45:12.939Z,24.8
2023-02-13T01:50:51.787Z,26.2
2023-02-13T01:56:28.136Z,27.3
2023-02-13T02:01:50.845Z,23.8
2023-02-13T02:07:13.299Z,25.4
2023-02-13T02:12:50.118Z,27
2023-02-13T02:18:12.110Z,24.5
2023-02-13T02:23:49.427Z,26.6
2023-02-13T02:29:26.659Z,25
2023-02-13T02:35:04.387Z,26.3
2023-02-13T02:40:41.349Z,27.3
2023-02-13T02:46:19.824Z,25.9
2023-02-13T02:51:57.504Z,26.9
2023-02-13T02:57:34.112Z,24.6
2023-02-13T03:03:11.787Z,26.4
2023-02-13T03:08:49.473Z,26.3
2023-02-13T03:14:27.294Z,25.9
2023-02-13T03:20:04.917Z,27
2023-02-13T03:25:42.265Z,24.6
2023-02-13T03:31:19.762Z,26.5
2023-02-13T03:36:57.704Z,26.1
2023-02-13T03:42:33.957Z,25.9
2023-02-13T03:48:11.697Z,26.9
2023-02-13T03:53:49.032Z,23.1
2023-02-13T03:59:25.950Z,25.3
2023-02-13T04:05:03.036Z,26.9
2023-02-13T04:10:25.224Z,24.6
2023-02-13T04:15:48.067Z,26.4
2023-02-13T04:21:09.820Z,26.8
2023-02-13T04:26:47.056Z,25.9
2023-02-13T04:32:26.392Z,26.8
2023-02-13T04:38:04.194Z,24.9
2023-02-13T04:43:41.668Z,25.9
2023-02-13T04:49:19.722Z,27.1
2023-02-13T04:54:55.918Z,24.8
2023-02-13T05:00:17.007Z,26.5
2023-02-13T05:05:40.503Z,27
2023-02-13T05:11:18.948Z,25.7
2023-02-13T05:16:56.699Z,26.7
2023-02-13T05:22:19.202Z,25.3
2023-02-13T05:27:41.101Z,25.8
2023-02-13T05:33:04.545Z,26.8
2023-02-13T05:38:42.731Z,24.4
2023-02-13T05:44:19.687Z,24.9
2023-02-13T05:49:58.907Z,26.4
2023-02-13T05:55:36.794Z,27.3
2023-02-13T06:01:15.269Z,26
2023-02-13T06:06:37.199Z,26.8
2023-02-13T06:12:14.533Z,25.1
2023-02-13T06:17:53.078Z,25.9
2023-02-13T06:23:30.823Z,27
2023-02-13T06:29:08.343Z,24.6
2023-02-13T06:34:46.967Z,26.2
2023-02-13T06:40:26.113Z,27.3
2023-02-13T06:45:48.246Z,25.3
2023-02-13T06:51:26.850Z,26.6
2023-02-13T06:57:00.485Z,25.4
2023-02-13T07:02:25.294Z,25.9
2023-02-13T07:08:03.074Z,27.1
2023-02-13T07:13:39.704Z,24.6
2023-02-13T07:19:16.972Z,26.4
2023-02-13T07:24:38.878Z,26.4
2023-02-13T07:30:17.208Z,23.9
2023-02-13T07:36:07.941Z,26.2
2023-02-13T07:41:31.642Z,26.1
2023-02-13T07:46:53.609Z,25.9
2023-02-13T07:52:15.634Z,27.1
2023-02-13T07:57:22.312Z,24.4
2023-02-13T08:03:01.139Z,26.5
2023-02-13T08:08:07.293Z,25.8
2023-02-13T08:13:45.534Z,25.9
2023-02-13T08:19:25.707Z,27.1
2023-02-13T08:25:02.524Z,24.4
2023-02-13T08:30:25.420Z,26.7
2023-02-13T08:35:58.209Z,25.2
2023-02-13T08:41:35.477Z,25.8
2023-02-13T08:47:14.160Z,27.1
2023-02-13T08:52:37.017Z,24.3
2023-02-13T08:58:15.307Z,26.4
2023-02-13T09:03:37.854Z,25.4
2023-02-13T09:09:16.173Z,25.9
2023-02-13T09:14:54.365Z,27.3
2023-02-13T09:20:31.384Z,23.4
2023-02-13T09:26:09.143Z,25.9
2023-02-13T09:31:32.410Z,25.9
2023-02-13T09:37:10.554Z,25.9
2023-02-13T09:42:17.102Z,27.4
2023-02-13T09:47:55.674Z,25.1
2023-02-13T09:53:34.833Z,26.9
2023-02-13T09:58:57.611Z,24.6
2023-02-13T10:04:35.439Z,26.5
2023-02-13T10:10:13.727Z,25.2
2023-02-13T10:15:39.433Z,25.9
2023-02-13T10:21:02.810Z,27.4
2023-02-13T10:26:39.335Z,25
2023-02-13T10:31:46.862Z,26.9
2023-02-13T10:37:26.301Z,24.7
2023-02-13T10:43:03.079Z,26.4
2023-02-13T10:48:43.279Z,25.4
2023-02-13T10:54:20.293Z,25.9
2023-02-13T11:00:12.672Z,27
2023-02-13T11:05:50.521Z,25.8
2023-02-13T11:11:11.477Z,27.3
2023-02-13T11:16:49.216Z,24.4
2023-02-13T11:22:28.959Z,26.9
2023-02-13T11:27:49.452Z,24.6
2023-02-13T11:33:12.221Z,26.4
2023-02-13T11:38:49.936Z,25.3
2023-02-13T11:44:27.325Z,25.9
2023-02-13T11:50:04.976Z,27.1
2023-02-13T11:55:41.514Z,25.2
2023-02-13T12:01:17.654Z,27.1
2023-02-13T12:06:24.494Z,24.6
2023-02-13T12:11:46.642Z,26.4
2023-02-13T12:17:12.498Z,25.3
2023-02-13T12:22:38.577Z,25.9
2023-02-13T12:28:16.582Z,27.1
2023-02-13T12:33:53.821Z,25
2023-02-13T12:39:16.410Z,27.2
2023-02-13T12:44:55.526Z,24.6
2023-02-13T12:50:32.520Z,26.8
2023-02-13T12:55:53.297Z,24.8
2023-02-13T13:01:15.547Z,26.1
2023-02-13T13:07:03.240Z,25.8
2023-02-13T13:12:40.949Z,25.7
2023-02-13T13:18:18.086Z,27.5
2023-02-13T13:23:39.637Z,24.5
2023-02-13T13:29:16.045Z,26.6
2023-02-13T13:34:24.633Z,25.1
2023-02-13T13:40:02.276Z,25.6
2023-02-13T13:45:23.183Z,27.4
2023-02-13T13:50:29.569Z,24.6
2023-02-13T13:55:36.209Z,26.3
2023-02-13T14:01:15.332Z,25.8
2023-02-13T14:06:39.570Z,25.4
2023-02-13T14:12:19.587Z,27.3
2023-02-13T14:17:57.230Z,24.6
2023-02-13T14:23:19.262Z,26.3
2023-02-13T14:29:03.439Z,25.6
2023-02-13T14:34:25.908Z,25.1
2023-02-13T14:40:06.363Z,27
2023-02-13T14:45:28.791Z,24.7
2023-02-13T14:51:05.771Z,26.2
2023-02-13T14:56:43.202Z,25.6
2023-02-13T15:02:21.205Z,25.4
2023-02-13T15:07:58.718Z,27.3
2023-02-13T15:13:20.938Z,24.6
2023-02-13T15:18:59.626Z,26.4
2023-02-13T15:24:22.153Z,25.3
2023-02-13T15:30:05.732Z,25.4
2023-02-13T15:35:44.617Z,27.2
2023-02-13T15:41:24.118Z,24.6
2023-02-13T15:46:47.064Z,24.3
2023-02-13T15:52:24.955Z,23.8
2023-02-13T15:58:03.529Z,23.2
2023-02-13T16:03:42.344Z,22.6
2023-02-13T16:09:32.291Z,21.9
2023-02-13T16:15:09.772Z,21.3
2023-02-13T16:20:47.529Z,20.7
2023-02-13T16:26:11.265Z,20.1
2023-02-13T16:31:49.732Z,19.6
2023-02-13T16:37:26.757Z,19.1
2023-02-13T16:48:11.410Z,18.3
2023-02-13T16:53:50.877Z,17.9
2023-02-13T16:59:27.446Z,17.6
2023-02-13T17:05:03.703Z,17.4
2023-02-13T17:10:25.898Z,17.1
2023-02-13T17:16:02.804Z,16.8
2023-02-13T17:21:41.984Z,16.7
2023-02-13T17:27:03.528Z,16.7
2023-02-13T17:32:44.184Z,16.8
2023-02-13T17:38:22.164Z,16.9
2023-02-13T17:43:58.744Z,17.2
2023-02-13T17:49:37.546Z,17.6
2023-02-13T17:55:25.910Z,18.2
2023-02-13T18:01:04.589Z,18.8
2023-02-13T18:06:42.332Z,19.3
2023-02-13T18:11:34.145Z,19.8
2023-02-13T18:17:28.578Z,19.9
2023-02-13T18:23:05.224Z,19.9
2023-02-13T18:28:27.219Z,19.8
2023-02-13T18:34:08.121Z,19.5
2023-02-13T18:39:29.980Z,19.3
2023-02-13T18:45:02.161Z,19
2023-02-13T18:50:40.795Z,18.8
2023-02-13T18:56:03.102Z,18.5
2023-02-13T19:01:40.113Z,18.3
2023-02-13T19:07:17.745Z,18
2023-02-13T19:12:54.942Z,17.7
2023-02-13T19:18:32.312Z,17.4
2023-02-13T19:23:39.351Z,17.2
2023-02-13T19:34:23.492Z,16.8
2023-02-13T19:40:13.223Z,16.5
2023-02-13T19:45:50.965Z,16.3
2023-02-13T19:51:00.702Z,16.1
2023-02-13T19:56:23.262Z,16.1
2023-02-13T20:02:01.684Z,16
2023-02-13T20:07:40.814Z,16
2023-02-13T20:12:47.569Z,15.9
2023-02-13T20:18:09.844Z,15.9
2023-02-13T20:23:32.831Z,15.9
2023-02-13T20:29:10.583Z,15.9
2023-02-13T20:34:25.830Z,15.9
2023-02-13T20:39:49.470Z,15.8
2023-02-13T20:44:58.170Z,15.8
2023-02-13T20:50:37.154Z,15.7
2023-02-13T20:55:44.065Z,15.6
2023-02-13T21:00:37.260Z,15.4
2023-02-13T21:05:59.502Z,15.3
2023-02-13T21:11:25.005Z,15.3
2023-02-13T21:17:02.568Z,15.1
2023-02-13T21:22:09.178Z,15
2023-02-13T21:27:46.936Z,24.8
2023-02-13T21:33:09.725Z,26.6
2023-02-13T21:38:47.364Z,25.8
2023-02-13T21:44:25.274Z,25.1
2023-02-13T21:50:03.342Z,25.1
2023-02-13T21:55:42.692Z,27.3
2023-02-13T22:01:09.378Z,25.9
2023-02-13T22:06:49.717Z,25.8
2023-02-13T22:12:26.430Z,25
2023-02-13T22:18:04.001Z,26.3
2023-02-13T22:23:41.646Z,26.3
2023-02-13T22:29:19.066Z,25.2
2023-02-13T22:35:10.857Z,25.3
2023-02-13T22:40:47.214Z,25.2
2023-02-13T22:46:24.055Z,27
2023-02-13T22:52:01.302Z,25.3
2023-02-13T22:57:23.301Z,25.3
2023-02-13T23:02:30.014Z,26.8
2023-02-13T23:08:08.335Z,25.6
2023-02-13T23:13:48.169Z,24.7
2023-02-13T23:18:54.236Z,26.4
2023-02-13T23:24:31.696Z,26.4
2023-02-13T23:29:54.036Z,24.7
2023-02-13T23:34:46.010Z,25.7
2023-02-13T23:40:08.065Z,27.1
2023-02-13T23:45:30.941Z,25.1
2023-02-13T23:50:52.987Z,25.1
2023-02-13T23:56:30.556Z,26.6
